sensor_id;sensor_type;location;lat;lon;timestamp;P1;durP1;ratioP1;P2;durP2;ratioP2
5674;SDS011;2860;54.284;10.158;2023-06-05T00:00:56;6.90;;;6.28;;
5674;SDS011;2860;54.284;10.158;2023-06-05T00:03:21;6.78;;;6.30;;
5674;SDS011;2860;54.284;10.158;2023-06-05T00:05:48;9.73;;;6.55;;
5674;SDS011;2860;54.284;10.158;2023-06-05T00:08:14;6.75;;;5.97;;
5674;SDS011;2860;54.284;10.158;2023-06-05T00:10:40;7.20;;;6.80;;
5674;SDS011;2860;54.284;10.158;2023-06-05T00:13:05;7.88;;;6.50;;
5674;SDS011;2860;54.284;10.158;2023-06-05T00:15:31;11.00;;;6.53;;
5674;SDS011;2860;54.284;10.158;2023-06-05T00:18:00;8.20;;;6.38;;
5674;SDS011;2860;54.284;10.158;2023-06-05T00:20:27;6.50;;;6.05;;
5674;SDS011;2860;54.284;10.158;2023-06-05T00:22:52;7.55;;;6.72;;
5674;SDS011;2860;54.284;10.158;2023-06-05T00:25:19;7.38;;;6.57;;
5674;SDS011;2860;54.284;10.158;2023-06-05T00:27:45;7.82;;;6.38;;
5674;SDS011;2860;54.284;10.158;2023-06-05T00:30:11;7.10;;;6.60;;
5674;SDS011;2860;54.284;10.158;2023-06-05T00:32:37;7.03;;;6.38;;
5674;SDS011;2860;54.284;10.158;2023-06-05T00:35:02;7.68;;;6.38;;
5674;SDS011;2860;54.284;10.158;2023-06-05T00:37:28;6.35;;;5.85;;
5674;SDS011;2860;54.284;10.158;2023-06-05T00:39:54;8.23;;;7.25;;
5674;SDS011;2860;54.284;10.158;2023-06-05T00:42:19;6.78;;;6.18;;
5674;SDS011;2860;54.284;10.158;2023-06-05T00:44:45;5.53;;;5.22;;
5674;SDS011;2860;54.284;10.158;2023-06-05T00:47:13;7.80;;;6.10;;
5674;SDS011;2860;54.284;10.158;2023-06-05T00:49:39;6.25;;;5.65;;
5674;SDS011;2860;54.284;10.158;2023-06-05T00:52:04;9.98;;;7.03;;
5674;SDS011;2860;54.284;10.158;2023-06-05T00:54:31;7.50;;;6.43;;
5674;SDS011;2860;54.284;10.158;2023-06-05T00:56:57;7.30;;;6.55;;
5674;SDS011;2860;54.284;10.158;2023-06-05T00:59:22;6.38;;;5.78;;
5674;SDS011;2860;54.284;10.158;2023-06-05T01:01:48;6.97;;;6.28;;
5674;SDS011;2860;54.284;10.158;2023-06-05T01:04:13;7.25;;;5.97;;
5674;SDS011;2860;54.284;10.158;2023-06-05T01:06:39;6.43;;;6.10;;
5674;SDS011;2860;54.284;10.158;2023-06-05T01:09:08;5.82;;;5.53;;
5674;SDS011;2860;54.284;10.158;2023-06-05T01:14:02;7.68;;;6.65;;
5674;SDS011;2860;54.284;10.158;2023-06-05T01:16:41;7.07;;;6.45;;
5674;SDS011;2860;54.284;10.158;2023-06-05T01:19:09;8.55;;;7.68;;
5674;SDS011;2860;54.284;10.158;2023-06-05T01:21:39;8.02;;;7.30;;
5674;SDS011;2860;54.284;10.158;2023-06-05T01:24:05;8.05;;;6.72;;
5674;SDS011;2860;54.284;10.158;2023-06-05T01:26:43;7.07;;;6.47;;
5674;SDS011;2860;54.284;10.158;2023-06-05T01:29:21;7.68;;;6.85;;
5674;SDS011;2860;54.284;10.158;2023-06-05T01:31:55;7.30;;;6.70;;
5674;SDS011;2860;54.284;10.158;2023-06-05T01:34:28;9.38;;;6.88;;
5674;SDS011;2860;54.284;10.158;2023-06-05T01:36:54;9.50;;;6.68;;
5674;SDS011;2860;54.284;10.158;2023-06-05T01:39:22;6.90;;;6.50;;
5674;SDS011;2860;54.284;10.158;2023-06-05T01:41:49;6.82;;;6.32;;
5674;SDS011;2860;54.284;10.158;2023-06-05T01:44:15;9.95;;;7.18;;
5674;SDS011;2860;54.284;10.158;2023-06-05T01:46:43;8.43;;;6.47;;
5674;SDS011;2860;54.284;10.158;2023-06-05T01:49:09;8.43;;;7.63;;
5674;SDS011;2860;54.284;10.158;2023-06-05T01:51:35;8.30;;;7.47;;
5674;SDS011;2860;54.284;10.158;2023-06-05T01:54:01;8.35;;;7.70;;
5674;SDS011;2860;54.284;10.158;2023-06-05T01:56:26;15.18;;;7.53;;
5674;SDS011;2860;54.284;10.158;2023-06-05T01:58:55;8.05;;;7.35;;
5674;SDS011;2860;54.284;10.158;2023-06-05T02:01:20;12.63;;;8.63;;
5674;SDS011;2860;54.284;10.158;2023-06-05T02:03:47;9.13;;;8.23;;
5674;SDS011;2860;54.284;10.158;2023-06-05T02:06:14;8.88;;;7.65;;
5674;SDS011;2860;54.284;10.158;2023-06-05T02:08:41;8.70;;;8.00;;
5674;SDS011;2860;54.284;10.158;2023-06-05T02:11:07;9.05;;;8.18;;
5674;SDS011;2860;54.284;10.158;2023-06-05T02:13:35;12.18;;;8.57;;
5674;SDS011;2860;54.284;10.158;2023-06-05T02:16:05;10.82;;;8.65;;
5674;SDS011;2860;54.284;10.158;2023-06-05T02:18:32;9.77;;;8.20;;
5674;SDS011;2860;54.284;10.158;2023-06-05T02:21:02;10.27;;;8.35;;
5674;SDS011;2860;54.284;10.158;2023-06-05T02:23:28;9.40;;;8.50;;
5674;SDS011;2860;54.284;10.158;2023-06-05T02:25:54;10.27;;;8.85;;
5674;SDS011;2860;54.284;10.158;2023-06-05T02:28:20;11.32;;;8.38;;
5674;SDS011;2860;54.284;10.158;2023-06-05T02:30:46;8.95;;;8.10;;
5674;SDS011;2860;54.284;10.158;2023-06-05T02:33:13;12.50;;;8.15;;
5674;SDS011;2860;54.284;10.158;2023-06-05T02:35:39;10.35;;;8.90;;
5674;SDS011;2860;54.284;10.158;2023-06-05T02:38:05;17.38;;;8.43;;
5674;SDS011;2860;54.284;10.158;2023-06-05T02:40:35;8.95;;;8.10;;
5674;SDS011;2860;54.284;10.158;2023-06-05T02:43:00;9.57;;;8.57;;
5674;SDS011;2860;54.284;10.158;2023-06-05T02:45:26;9.45;;;8.57;;
5674;SDS011;2860;54.284;10.158;2023-06-05T02:47:52;9.50;;;7.75;;
5674;SDS011;2860;54.284;10.158;2023-06-05T02:50:17;9.23;;;8.32;;
5674;SDS011;2860;54.284;10.158;2023-06-05T02:52:43;10.07;;;8.70;;
5674;SDS011;2860;54.284;10.158;2023-06-05T02:55:08;9.68;;;8.88;;
5674;SDS011;2860;54.284;10.158;2023-06-05T02:57:34;11.73;;;9.20;;
5674;SDS011;2860;54.284;10.158;2023-06-05T03:00:09;10.80;;;8.80;;
5674;SDS011;2860;54.284;10.158;2023-06-05T03:02:41;12.65;;;9.80;;
5674;SDS011;2860;54.284;10.158;2023-06-05T03:05:13;13.52;;;9.75;;
5674;SDS011;2860;54.284;10.158;2023-06-05T03:07:39;9.93;;;8.77;;
5674;SDS011;2860;54.284;10.158;2023-06-05T03:10:05;10.07;;;9.07;;
5674;SDS011;2860;54.284;10.158;2023-06-05T03:12:31;12.73;;;8.73;;
5674;SDS011;2860;54.284;10.158;2023-06-05T03:14:57;9.73;;;8.82;;
5674;SDS011;2860;54.284;10.158;2023-06-05T03:17:22;13.30;;;9.02;;
5674;SDS011;2860;54.284;10.158;2023-06-05T03:19:49;9.45;;;8.57;;
5674;SDS011;2860;54.284;10.158;2023-06-05T03:22:15;12.38;;;9.30;;
5674;SDS011;2860;54.284;10.158;2023-06-05T03:24:41;9.68;;;8.52;;
5674;SDS011;2860;54.284;10.158;2023-06-05T03:27:07;10.63;;;8.75;;
5674;SDS011;2860;54.284;10.158;2023-06-05T03:29:33;11.05;;;9.50;;
5674;SDS011;2860;54.284;10.158;2023-06-05T03:31:58;10.02;;;8.80;;
5674;SDS011;2860;54.284;10.158;2023-06-05T03:34:24;10.85;;;8.90;;
5674;SDS011;2860;54.284;10.158;2023-06-05T03:36:50;9.25;;;8.30;;
5674;SDS011;2860;54.284;10.158;2023-06-05T03:39:16;10.25;;;9.13;;
5674;SDS011;2860;54.284;10.158;2023-06-05T03:41:42;13.55;;;9.60;;
5674;SDS011;2860;54.284;10.158;2023-06-05T03:44:08;10.13;;;8.95;;
5674;SDS011;2860;54.284;10.158;2023-06-05T03:46:33;11.40;;;9.68;;
5674;SDS011;2860;54.284;10.158;2023-06-05T03:49:00;12.13;;;9.90;;
5674;SDS011;2860;54.284;10.158;2023-06-05T03:51:30;12.27;;;8.38;;
5674;SDS011;2860;54.284;10.158;2023-06-05T03:53:56;11.57;;;8.38;;
5674;SDS011;2860;54.284;10.158;2023-06-05T03:56:23;18.20;;;9.57;;
5674;SDS011;2860;54.284;10.158;2023-06-05T03:58:53;11.30;;;9.18;;
5674;SDS011;2860;54.284;10.158;2023-06-05T04:01:19;10.68;;;8.50;;
5674;SDS011;2860;54.284;10.158;2023-06-05T04:03:44;11.10;;;8.07;;
5674;SDS011;2860;54.284;10.158;2023-06-05T04:06:10;13.88;;;8.85;;
5674;SDS011;2860;54.284;10.158;2023-06-05T04:08:36;10.27;;;9.10;;
5674;SDS011;2860;54.284;10.158;2023-06-05T04:11:02;10.43;;;8.32;;
5674;SDS011;2860;54.284;10.158;2023-06-05T04:13:27;11.05;;;8.82;;
5674;SDS011;2860;54.284;10.158;2023-06-05T04:15:53;10.77;;;9.07;;
5674;SDS011;2860;54.284;10.158;2023-06-05T04:18:18;10.40;;;9.27;;
5674;SDS011;2860;54.284;10.158;2023-06-05T04:20:44;13.25;;;9.15;;
5674;SDS011;2860;54.284;10.158;2023-06-05T04:23:09;11.45;;;8.50;;
5674;SDS011;2860;54.284;10.158;2023-06-05T04:25:35;14.10;;;9.63;;
5674;SDS011;2860;54.284;10.158;2023-06-05T04:28:00;10.63;;;8.73;;
5674;SDS011;2860;54.284;10.158;2023-06-05T04:30:26;13.57;;;8.82;;
5674;SDS011;2860;54.284;10.158;2023-06-05T04:32:54;9.98;;;9.05;;
5674;SDS011;2860;54.284;10.158;2023-06-05T04:35:20;9.55;;;8.55;;
5674;SDS011;2860;54.284;10.158;2023-06-05T04:37:46;12.93;;;8.65;;
5674;SDS011;2860;54.284;10.158;2023-06-05T04:40:12;11.98;;;9.38;;
5674;SDS011;2860;54.284;10.158;2023-06-05T04:42:37;13.05;;;7.97;;
5674;SDS011;2860;54.284;10.158;2023-06-05T04:45:04;11.45;;;9.15;;
5674;SDS011;2860;54.284;10.158;2023-06-05T04:47:32;13.75;;;8.55;;
5674;SDS011;2860;54.284;10.158;2023-06-05T04:49:59;11.70;;;8.10;;
5674;SDS011;2860;54.284;10.158;2023-06-05T04:52:25;9.48;;;8.32;;
5674;SDS011;2860;54.284;10.158;2023-06-05T04:54:51;13.85;;;9.00;;
5674;SDS011;2860;54.284;10.158;2023-06-05T04:57:17;10.48;;;8.52;;
5674;SDS011;2860;54.284;10.158;2023-06-05T04:59:43;8.02;;;7.15;;
5674;SDS011;2860;54.284;10.158;2023-06-05T05:02:09;10.48;;;7.47;;
5674;SDS011;2860;54.284;10.158;2023-06-05T05:04:35;7.85;;;7.15;;
5674;SDS011;2860;54.284;10.158;2023-06-05T05:07:01;7.57;;;6.97;;
5674;SDS011;2860;54.284;10.158;2023-06-05T05:09:27;7.57;;;6.88;;
5674;SDS011;2860;54.284;10.158;2023-06-05T05:11:53;10.00;;;6.75;;
5674;SDS011;2860;54.284;10.158;2023-06-05T05:14:18;7.97;;;7.38;;
5674;SDS011;2860;54.284;10.158;2023-06-05T05:16:44;7.45;;;6.72;;
5674;SDS011;2860;54.284;10.158;2023-06-05T05:19:10;7.55;;;5.88;;
5674;SDS011;2860;54.284;10.158;2023-06-05T05:21:35;6.32;;;5.93;;
5674;SDS011;2860;54.284;10.158;2023-06-05T05:24:02;6.93;;;6.38;;
5674;SDS011;2860;54.284;10.158;2023-06-05T05:26:28;8.13;;;7.03;;
5674;SDS011;2860;54.284;10.158;2023-06-05T05:28:54;6.60;;;6.00;;
5674;SDS011;2860;54.284;10.158;2023-06-05T05:31:19;7.40;;;6.68;;
5674;SDS011;2860;54.284;10.158;2023-06-05T05:33:45;8.93;;;6.20;;
5674;SDS011;2860;54.284;10.158;2023-06-05T05:36:10;9.02;;;6.53;;
5674;SDS011;2860;54.284;10.158;2023-06-05T05:38:36;6.38;;;5.95;;
5674;SDS011;2860;54.284;10.158;2023-06-05T05:41:01;8.68;;;6.47;;
5674;SDS011;2860;54.284;10.158;2023-06-05T05:43:27;7.55;;;6.88;;
5674;SDS011;2860;54.284;10.158;2023-06-05T05:45:52;7.35;;;5.85;;
5674;SDS011;2860;54.284;10.158;2023-06-05T05:48:18;9.05;;;5.40;;
5674;SDS011;2860;54.284;10.158;2023-06-05T05:50:43;6.80;;;6.03;;
5674;SDS011;2860;54.284;10.158;2023-06-05T05:53:09;6.65;;;5.93;;
5674;SDS011;2860;54.284;10.158;2023-06-05T05:55:34;9.30;;;7.07;;
5674;SDS011;2860;54.284;10.158;2023-06-05T05:58:00;8.93;;;6.03;;
5674;SDS011;2860;54.284;10.158;2023-06-05T06:00:25;6.85;;;6.03;;
5674;SDS011;2860;54.284;10.158;2023-06-05T06:02:51;6.97;;;6.35;;
5674;SDS011;2860;54.284;10.158;2023-06-05T06:05:17;6.65;;;6.15;;
5674;SDS011;2860;54.284;10.158;2023-06-05T06:07:43;7.32;;;6.55;;
5674;SDS011;2860;54.284;10.158;2023-06-05T06:10:09;6.45;;;5.95;;
5674;SDS011;2860;54.284;10.158;2023-06-05T06:12:36;6.05;;;5.63;;
5674;SDS011;2860;54.284;10.158;2023-06-05T06:15:02;6.10;;;5.68;;
5674;SDS011;2860;54.284;10.158;2023-06-05T06:17:29;6.70;;;6.13;;
5674;SDS011;2860;54.284;10.158;2023-06-05T06:19:55;7.25;;;6.28;;
5674;SDS011;2860;54.284;10.158;2023-06-05T06:22:20;6.65;;;6.07;;
5674;SDS011;2860;54.284;10.158;2023-06-05T06:24:46;10.13;;;6.43;;
5674;SDS011;2860;54.284;10.158;2023-06-05T06:27:11;5.93;;;5.40;;
5674;SDS011;2860;54.284;10.158;2023-06-05T06:29:46;9.07;;;6.00;;
5674;SDS011;2860;54.284;10.158;2023-06-05T06:32:13;10.43;;;6.32;;
5674;SDS011;2860;54.284;10.158;2023-06-05T06:34:40;6.50;;;5.90;;
5674;SDS011;2860;54.284;10.158;2023-06-05T06:37:05;6.43;;;5.75;;
5674;SDS011;2860;54.284;10.158;2023-06-05T06:39:31;6.55;;;5.95;;
5674;SDS011;2860;54.284;10.158;2023-06-05T06:41:57;6.82;;;6.20;;
5674;SDS011;2860;54.284;10.158;2023-06-05T06:44:22;7.72;;;6.10;;
5674;SDS011;2860;54.284;10.158;2023-06-05T06:46:48;6.45;;;6.05;;
5674;SDS011;2860;54.284;10.158;2023-06-05T06:49:13;6.50;;;5.82;;
5674;SDS011;2860;54.284;10.158;2023-06-05T06:51:39;6.80;;;6.40;;
5674;SDS011;2860;54.284;10.158;2023-06-05T06:54:05;7.40;;;5.63;;
5674;SDS011;2860;54.284;10.158;2023-06-05T06:56:31;8.02;;;6.40;;
5674;SDS011;2860;54.284;10.158;2023-06-05T06:58:56;6.60;;;5.97;;
5674;SDS011;2860;54.284;10.158;2023-06-05T07:01:22;6.43;;;5.85;;
5674;SDS011;2860;54.284;10.158;2023-06-05T07:03:48;7.43;;;6.57;;
5674;SDS011;2860;54.284;10.158;2023-06-05T07:06:14;6.65;;;5.93;;
5674;SDS011;2860;54.284;10.158;2023-06-05T07:08:40;10.30;;;6.63;;
5674;SDS011;2860;54.284;10.158;2023-06-05T07:11:05;8.75;;;5.95;;
5674;SDS011;2860;54.284;10.158;2023-06-05T07:13:31;7.05;;;6.55;;
5674;SDS011;2860;54.284;10.158;2023-06-05T07:15:56;7.22;;;5.97;;
5674;SDS011;2860;54.284;10.158;2023-06-05T07:18:22;6.10;;;5.18;;
5674;SDS011;2860;54.284;10.158;2023-06-05T07:20:47;7.93;;;5.95;;
5674;SDS011;2860;54.284;10.158;2023-06-05T07:23:14;7.38;;;6.28;;
5674;SDS011;2860;54.284;10.158;2023-06-05T07:25:40;5.72;;;5.18;;
5674;SDS011;2860;54.284;10.158;2023-06-05T07:28:07;5.97;;;5.32;;
5674;SDS011;2860;54.284;10.158;2023-06-05T07:30:34;6.10;;;5.50;;
5674;SDS011;2860;54.284;10.158;2023-06-05T07:33:00;6.57;;;5.35;;
5674;SDS011;2860;54.284;10.158;2023-06-05T07:35:26;8.60;;;4.82;;
5674;SDS011;2860;54.284;10.158;2023-06-05T07:37:51;5.30;;;4.80;;
5674;SDS011;2860;54.284;10.158;2023-06-05T07:40:17;7.22;;;4.63;;
5674;SDS011;2860;54.284;10.158;2023-06-05T07:42:44;5.93;;;5.43;;
5674;SDS011;2860;54.284;10.158;2023-06-05T07:45:09;5.13;;;4.93;;
5674;SDS011;2860;54.284;10.158;2023-06-05T07:47:35;7.65;;;5.60;;
5674;SDS011;2860;54.284;10.158;2023-06-05T07:50:01;5.85;;;5.35;;
5674;SDS011;2860;54.284;10.158;2023-06-05T07:52:29;7.43;;;5.68;;
5674;SDS011;2860;54.284;10.158;2023-06-05T07:54:55;11.82;;;5.38;;
5674;SDS011;2860;54.284;10.158;2023-06-05T07:57:21;6.72;;;6.13;;
5674;SDS011;2860;54.284;10.158;2023-06-05T07:59:48;7.75;;;5.35;;
5674;SDS011;2860;54.284;10.158;2023-06-05T08:02:15;5.78;;;5.43;;
5674;SDS011;2860;54.284;10.158;2023-06-05T08:04:44;7.63;;;6.32;;
5674;SDS011;2860;54.284;10.158;2023-06-05T08:07:10;5.32;;;4.88;;
5674;SDS011;2860;54.284;10.158;2023-06-05T08:09:35;7.28;;;5.57;;
5674;SDS011;2860;54.284;10.158;2023-06-05T08:12:02;5.78;;;5.22;;
5674;SDS011;2860;54.284;10.158;2023-06-05T08:14:28;7.32;;;5.57;;
5674;SDS011;2860;54.284;10.158;2023-06-05T08:16:53;6.65;;;5.57;;
5674;SDS011;2860;54.284;10.158;2023-06-05T08:19:20;5.60;;;5.18;;
5674;SDS011;2860;54.284;10.158;2023-06-05T08:21:46;6.55;;;5.63;;
5674;SDS011;2860;54.284;10.158;2023-06-05T08:24:15;5.43;;;4.97;;
5674;SDS011;2860;54.284;10.158;2023-06-05T08:26:40;6.07;;;5.20;;
5674;SDS011;2860;54.284;10.158;2023-06-05T08:29:06;5.35;;;4.75;;
5674;SDS011;2860;54.284;10.158;2023-06-05T08:31:32;8.35;;;4.93;;
5674;SDS011;2860;54.284;10.158;2023-06-05T08:33:59;7.35;;;5.57;;
5674;SDS011;2860;54.284;10.158;2023-06-05T08:36:25;6.40;;;5.65;;
5674;SDS011;2860;54.284;10.158;2023-06-05T08:38:50;6.82;;;6.22;;
5674;SDS011;2860;54.284;10.158;2023-06-05T08:41:16;6.60;;;4.65;;
5674;SDS011;2860;54.284;10.158;2023-06-05T08:43:42;6.80;;;5.65;;
5674;SDS011;2860;54.284;10.158;2023-06-05T08:46:10;5.65;;;5.13;;
5674;SDS011;2860;54.284;10.158;2023-06-05T08:48:43;4.93;;;4.57;;
5674;SDS011;2860;54.284;10.158;2023-06-05T08:51:10;5.97;;;5.40;;
5674;SDS011;2860;54.284;10.158;2023-06-05T08:53:38;9.63;;;5.57;;
5674;SDS011;2860;54.284;10.158;2023-06-05T08:56:04;6.43;;;5.40;;
5674;SDS011;2860;54.284;10.158;2023-06-05T08:58:31;7.43;;;6.38;;
5674;SDS011;2860;54.284;10.158;2023-06-05T09:00:57;23.88;;;19.23;;
5674;SDS011;2860;54.284;10.158;2023-06-05T09:03:24;5.90;;;5.28;;
5674;SDS011;2860;54.284;10.158;2023-06-05T09:05:50;5.65;;;4.82;;
5674;SDS011;2860;54.284;10.158;2023-06-05T09:08:17;4.88;;;4.43;;
5674;SDS011;2860;54.284;10.158;2023-06-05T09:10:52;7.35;;;5.25;;
5674;SDS011;2860;54.284;10.158;2023-06-05T09:13:17;5.22;;;4.70;;
5674;SDS011;2860;54.284;10.158;2023-06-05T09:15:43;5.88;;;5.07;;
5674;SDS011;2860;54.284;10.158;2023-06-05T09:18:15;5.70;;;4.45;;
5674;SDS011;2860;54.284;10.158;2023-06-05T09:20:41;5.20;;;4.90;;
5674;SDS011;2860;54.284;10.158;2023-06-05T09:23:26;5.30;;;4.90;;
5674;SDS011;2860;54.284;10.158;2023-06-05T09:25:54;7.35;;;4.95;;
5674;SDS011;2860;54.284;10.158;2023-06-05T09:28:21;5.47;;;5.07;;
5674;SDS011;2860;54.284;10.158;2023-06-05T09:30:53;10.60;;;5.63;;
5674;SDS011;2860;54.284;10.158;2023-06-05T09:33:24;4.88;;;4.50;;
5674;SDS011;2860;54.284;10.158;2023-06-05T09:36:04;6.47;;;5.15;;
5674;SDS011;2860;54.284;10.158;2023-06-05T09:38:31;5.45;;;4.93;;
5674;SDS011;2860;54.284;10.158;2023-06-05T09:41:06;6.10;;;5.53;;
5674;SDS011;2860;54.284;10.158;2023-06-05T09:43:35;4.90;;;4.60;;
5674;SDS011;2860;54.284;10.158;2023-06-05T09:46:08;5.20;;;4.65;;
5674;SDS011;2860;54.284;10.158;2023-06-05T09:48:35;5.38;;;4.85;;
5674;SDS011;2860;54.284;10.158;2023-06-05T09:51:10;10.10;;;4.63;;
5674;SDS011;2860;54.284;10.158;2023-06-05T09:53:44;4.53;;;4.25;;
5674;SDS011;2860;54.284;10.158;2023-06-05T09:56:11;8.00;;;4.63;;
5674;SDS011;2860;54.284;10.158;2023-06-05T09:58:50;4.53;;;4.22;;
5674;SDS011;2860;54.284;10.158;2023-06-05T10:01:21;4.90;;;4.47;;
5674;SDS011;2860;54.284;10.158;2023-06-05T10:03:50;8.20;;;4.47;;
5674;SDS011;2860;54.284;10.158;2023-06-05T10:06:20;4.93;;;4.53;;
5674;SDS011;2860;54.284;10.158;2023-06-05T10:08:49;4.50;;;4.30;;
5674;SDS011;2860;54.284;10.158;2023-06-05T10:11:24;6.30;;;4.47;;
5674;SDS011;2860;54.284;10.158;2023-06-05T10:14:09;4.55;;;4.25;;
5674;SDS011;2860;54.284;10.158;2023-06-05T10:16:34;5.25;;;4.93;;
5674;SDS011;2860;54.284;10.158;2023-06-05T10:19:01;4.65;;;4.45;;
5674;SDS011;2860;54.284;10.158;2023-06-05T10:21:28;5.85;;;5.00;;
5674;SDS011;2860;54.284;10.158;2023-06-05T10:32:09;5.10;;;4.65;;
5674;SDS011;2860;54.284;10.158;2023-06-05T10:35:06;5.18;;;4.88;;
5674;SDS011;2860;54.284;10.158;2023-06-05T10:40:32;5.43;;;4.68;;
5674;SDS011;2860;54.284;10.158;2023-06-05T10:45:52;5.45;;;4.93;;
5674;SDS011;2860;54.284;10.158;2023-06-05T10:48:19;5.18;;;4.75;;
5674;SDS011;2860;54.284;10.158;2023-06-05T10:50:44;4.90;;;4.63;;
5674;SDS011;2860;54.284;10.158;2023-06-05T10:56:06;6.65;;;5.10;;
5674;SDS011;2860;54.284;10.158;2023-06-05T10:58:31;5.13;;;4.30;;
5674;SDS011;2860;54.284;10.158;2023-06-05T11:01:16;6.47;;;4.47;;
5674;SDS011;2860;54.284;10.158;2023-06-05T11:06:19;4.07;;;3.67;;
5674;SDS011;2860;54.284;10.158;2023-06-05T11:09:05;4.22;;;3.88;;
5674;SDS011;2860;54.284;10.158;2023-06-05T11:14:19;4.13;;;3.53;;
5674;SDS011;2860;54.284;10.158;2023-06-05T11:16:45;3.33;;;3.22;;
5674;SDS011;2860;54.284;10.158;2023-06-05T11:22:09;2.63;;;2.42;;
5674;SDS011;2860;54.284;10.158;2023-06-05T11:24:35;2.85;;;2.33;;
5674;SDS011;2860;54.284;10.158;2023-06-05T11:27:02;4.50;;;2.67;;
5674;SDS011;2860;54.284;10.158;2023-06-05T11:29:28;2.65;;;2.42;;
5674;SDS011;2860;54.284;10.158;2023-06-05T11:31:54;3.58;;;3.33;;
5674;SDS011;2860;54.284;10.158;2023-06-05T11:34:20;3.92;;;3.72;;
5674;SDS011;2860;54.284;10.158;2023-06-05T11:36:46;3.88;;;3.70;;
5674;SDS011;2860;54.284;10.158;2023-06-05T11:39:12;4.82;;;4.10;;
5674;SDS011;2860;54.284;10.158;2023-06-05T11:41:45;10.65;;;4.80;;
5674;SDS011;2860;54.284;10.158;2023-06-05T11:44:13;6.97;;;3.92;;
5674;SDS011;2860;54.284;10.158;2023-06-05T11:46:42;3.83;;;3.53;;
5674;SDS011;2860;54.284;10.158;2023-06-05T11:49:09;4.78;;;4.03;;
5674;SDS011;2860;54.284;10.158;2023-06-05T11:51:49;3.55;;;3.25;;
5674;SDS011;2860;54.284;10.158;2023-06-05T11:54:30;2.28;;;2.17;;
5674;SDS011;2860;54.284;10.158;2023-06-05T11:57:00;2.20;;;2.00;;
5674;SDS011;2860;54.284;10.158;2023-06-05T11:59:33;4.18;;;2.35;;
5674;SDS011;2860;54.284;10.158;2023-06-05T12:02:02;1.33;;;1.23;;
5674;SDS011;2860;54.284;10.158;2023-06-05T12:04:30;1.63;;;1.42;;
5674;SDS011;2860;54.284;10.158;2023-06-05T12:06:56;2.00;;;1.90;;
5674;SDS011;2860;54.284;10.158;2023-06-05T12:09:22;5.38;;;2.83;;
5674;SDS011;2860;54.284;10.158;2023-06-05T12:11:48;5.63;;;3.35;;
5674;SDS011;2860;54.284;10.158;2023-06-05T12:14:27;7.38;;;2.92;;
5674;SDS011;2860;54.284;10.158;2023-06-05T12:16:54;4.15;;;2.72;;
5674;SDS011;2860;54.284;10.158;2023-06-05T12:19:19;5.93;;;3.33;;
5674;SDS011;2860;54.284;10.158;2023-06-05T12:21:46;3.25;;;2.97;;
5674;SDS011;2860;54.284;10.158;2023-06-05T12:24:12;5.15;;;3.08;;
5674;SDS011;2860;54.284;10.158;2023-06-05T12:26:54;8.13;;;2.65;;
5674;SDS011;2860;54.284;10.158;2023-06-05T12:29:24;2.88;;;2.60;;
5674;SDS011;2860;54.284;10.158;2023-06-05T12:31:53;3.00;;;2.53;;
5674;SDS011;2860;54.284;10.158;2023-06-05T12:34:20;2.40;;;2.30;;
5674;SDS011;2860;54.284;10.158;2023-06-05T12:37:22;2.92;;;2.83;;
5674;SDS011;2860;54.284;10.158;2023-06-05T12:39:48;3.10;;;2.90;;
5674;SDS011;2860;54.284;10.158;2023-06-05T12:42:13;5.47;;;2.67;;
5674;SDS011;2860;54.284;10.158;2023-06-05T12:44:39;2.88;;;2.70;;
5674;SDS011;2860;54.284;10.158;2023-06-05T12:47:04;3.28;;;3.00;;
5674;SDS011;2860;54.284;10.158;2023-06-05T12:49:30;6.13;;;3.60;;
5674;SDS011;2860;54.284;10.158;2023-06-05T12:51:56;6.05;;;3.63;;
5674;SDS011;2860;54.284;10.158;2023-06-05T12:54:22;4.38;;;3.55;;
5674;SDS011;2860;54.284;10.158;2023-06-05T12:56:48;3.08;;;2.97;;
5674;SDS011;2860;54.284;10.158;2023-06-05T12:59:14;6.85;;;3.55;;
5674;SDS011;2860;54.284;10.158;2023-06-05T13:01:39;6.07;;;3.65;;
5674;SDS011;2860;54.284;10.158;2023-06-05T13:04:05;5.15;;;3.40;;
5674;SDS011;2860;54.284;10.158;2023-06-05T13:06:31;3.15;;;2.95;;
5674;SDS011;2860;54.284;10.158;2023-06-05T13:08:59;3.00;;;2.75;;
5674;SDS011;2860;54.284;10.158;2023-06-05T13:11:25;3.78;;;3.30;;
5674;SDS011;2860;54.284;10.158;2023-06-05T13:13:51;3.75;;;2.88;;
5674;SDS011;2860;54.284;10.158;2023-06-05T13:16:16;5.32;;;2.80;;
5674;SDS011;2860;54.284;10.158;2023-06-05T13:18:42;4.40;;;3.00;;
5674;SDS011;2860;54.284;10.158;2023-06-05T13:21:07;3.67;;;3.33;;
5674;SDS011;2860;54.284;10.158;2023-06-05T13:23:33;4.95;;;3.33;;
5674;SDS011;2860;54.284;10.158;2023-06-05T13:26:01;6.82;;;3.92;;
5674;SDS011;2860;54.284;10.158;2023-06-05T13:28:28;6.90;;;3.25;;
5674;SDS011;2860;54.284;10.158;2023-06-05T13:30:54;3.70;;;3.40;;
5674;SDS011;2860;54.284;10.158;2023-06-05T13:33:21;3.35;;;3.25;;
5674;SDS011;2860;54.284;10.158;2023-06-05T13:35:47;3.17;;;2.83;;
5674;SDS011;2860;54.284;10.158;2023-06-05T13:38:13;3.65;;;2.88;;
5674;SDS011;2860;54.284;10.158;2023-06-05T13:40:38;3.47;;;3.10;;
5674;SDS011;2860;54.284;10.158;2023-06-05T13:43:06;2.90;;;2.80;;
5674;SDS011;2860;54.284;10.158;2023-06-05T13:45:31;3.63;;;3.30;;
5674;SDS011;2860;54.284;10.158;2023-06-05T13:47:57;3.58;;;3.17;;
5674;SDS011;2860;54.284;10.158;2023-06-05T13:50:23;3.53;;;3.22;;
5674;SDS011;2860;54.284;10.158;2023-06-05T13:52:48;5.75;;;3.05;;
5674;SDS011;2860;54.284;10.158;2023-06-05T13:55:14;2.90;;;2.67;;
5674;SDS011;2860;54.284;10.158;2023-06-05T13:57:40;3.17;;;2.70;;
5674;SDS011;2860;54.284;10.158;2023-06-05T14:00:06;4.15;;;3.15;;
5674;SDS011;2860;54.284;10.158;2023-06-05T14:02:32;4.70;;;3.13;;
5674;SDS011;2860;54.284;10.158;2023-06-05T14:05:01;3.35;;;3.03;;
5674;SDS011;2860;54.284;10.158;2023-06-05T14:07:27;4.40;;;4.00;;
5674;SDS011;2860;54.284;10.158;2023-06-05T14:09:52;2.80;;;2.70;;
5674;SDS011;2860;54.284;10.158;2023-06-05T14:12:18;3.75;;;2.65;;
5674;SDS011;2860;54.284;10.158;2023-06-05T14:14:44;3.38;;;3.03;;
5674;SDS011;2860;54.284;10.158;2023-06-05T14:17:10;3.60;;;2.92;;
5674;SDS011;2860;54.284;10.158;2023-06-05T14:19:35;4.40;;;3.50;;
5674;SDS011;2860;54.284;10.158;2023-06-05T14:22:01;2.97;;;2.72;;
5674;SDS011;2860;54.284;10.158;2023-06-05T14:24:26;5.13;;;3.40;;
5674;SDS011;2860;54.284;10.158;2023-06-05T14:26:52;5.72;;;4.20;;
5674;SDS011;2860;54.284;10.158;2023-06-05T14:29:19;5.03;;;3.15;;
5674;SDS011;2860;54.284;10.158;2023-06-05T14:31:45;3.40;;;3.20;;
5674;SDS011;2860;54.284;10.158;2023-06-05T14:34:10;3.42;;;3.13;;
5674;SDS011;2860;54.284;10.158;2023-06-05T14:36:36;3.20;;;2.97;;
5674;SDS011;2860;54.284;10.158;2023-06-05T14:39:02;3.15;;;3.00;;
5674;SDS011;2860;54.284;10.158;2023-06-05T14:41:28;4.43;;;2.88;;
5674;SDS011;2860;54.284;10.158;2023-06-05T14:43:55;3.30;;;3.10;;
5674;SDS011;2860;54.284;10.158;2023-06-05T14:46:21;3.50;;;3.28;;
5674;SDS011;2860;54.284;10.158;2023-06-05T14:48:46;3.47;;;3.17;;
5674;SDS011;2860;54.284;10.158;2023-06-05T14:51:12;3.13;;;2.95;;
5674;SDS011;2860;54.284;10.158;2023-06-05T14:53:37;2.95;;;2.85;;
5674;SDS011;2860;54.284;10.158;2023-06-05T14:56:03;5.45;;;2.83;;
5674;SDS011;2860;54.284;10.158;2023-06-05T14:58:29;2.70;;;2.55;;
5674;SDS011;2860;54.284;10.158;2023-06-05T15:00:55;5.15;;;3.28;;
5674;SDS011;2860;54.284;10.158;2023-06-05T15:03:20;3.15;;;2.78;;
5674;SDS011;2860;54.284;10.158;2023-06-05T15:05:46;4.47;;;3.40;;
5674;SDS011;2860;54.284;10.158;2023-06-05T15:08:11;3.88;;;3.58;;
5674;SDS011;2860;54.284;10.158;2023-06-05T15:10:37;3.05;;;2.85;;
5674;SDS011;2860;54.284;10.158;2023-06-05T15:13:02;4.50;;;3.33;;
5674;SDS011;2860;54.284;10.158;2023-06-05T15:15:28;3.53;;;3.10;;
5674;SDS011;2860;54.284;10.158;2023-06-05T15:17:54;3.80;;;2.70;;
5674;SDS011;2860;54.284;10.158;2023-06-05T15:20:20;3.33;;;2.65;;
5674;SDS011;2860;54.284;10.158;2023-06-05T15:22:46;2.97;;;2.80;;
5674;SDS011;2860;54.284;10.158;2023-06-05T15:25:11;4.00;;;3.58;;